createdAt,value
2019-02-12T00:00:08.088Z,67.42
2019-02-12T00:02:38.505Z,68.62
2019-02-12T00:05:08.823Z,69.42
2019-02-12T00:07:39.039Z,65.58
2019-02-12T00:10:09.476Z,63.61
2019-02-12T00:12:39.804Z,64.65
2019-02-12T00:15:10.119Z,66.80
2019-02-12T00:17:40.344Z,65.11
2019-02-12T00:20:10.645Z,70.34
2019-02-12T00:22:40.972Z,72.15
2019-02-12T00:25:11.307Z,67.29
2019-02-12T00:27:43.505Z,67.74
2019-02-12T00:30:13.790Z,66.33
2019-02-12T00:32:44.121Z,70.37
2019-02-12T00:35:14.363Z,67.50
2019-02-12T00:37:44.679Z,69.41
2019-02-12T00:40:15.020Z,68.38
2019-02-12T00:42:45.244Z,69.97
2019-02-12T00:45:15.554Z,75.09
2019-02-12T00:47:46.130Z,71.78
2019-02-12T00:50:16.585Z,70.51
2019-02-12T00:52:46.987Z,65.53
2019-02-12T00:55:17.316Z,66.11
2019-02-12T00:57:47.729Z,67.24
2019-02-12T01:00:19.325Z,67.18
2019-02-12T01:02:50.041Z,70.43
2019-02-12T01:05:20.673Z,65.89
2019-02-12T01:07:52.301Z,66.06
2019-02-12T01:10:23.797Z,66.35
2019-02-12T01:12:54.383Z,64.83
2019-02-12T01:15:25.572Z,65.42
2019-02-12T01:17:55.952Z,65.41
2019-02-12T01:20:26.502Z,65.88
2019-02-12T01:22:56.827Z,67.13
2019-02-12T01:25:27.231Z,70.77
2019-02-12T01:27:57.795Z,70.76
2019-02-12T01:30:28.302Z,66.08
2019-02-12T01:36:18.202Z,63.72
2019-02-12T01:41:53.050Z,67.85
2019-02-12T01:44:23.400Z,66.89
2019-02-12T01:46:53.738Z,67.22
2019-02-12T01:49:24.075Z,64.06
2019-02-12T01:51:54.374Z,64.92
2019-02-12T01:54:24.594Z,64.36
2019-02-12T01:56:54.923Z,64.46
2019-02-12T01:59:25.156Z,64.98
2019-02-12T02:01:55.443Z,64.33
2019-02-12T02:04:25.778Z,63.83
2019-02-12T02:06:56.015Z,64.18
2019-02-12T02:09:26.257Z,65.27
2019-02-12T02:11:56.586Z,64.17
2019-02-12T02:14:26.912Z,64.36
2019-02-12T02:16:57.123Z,64.32
2019-02-12T02:19:27.352Z,66.32
2019-02-12T02:21:57.676Z,66.72
2019-02-12T02:24:28.004Z,66.88
2019-02-12T02:26:58.233Z,64.83
2019-02-12T02:29:28.543Z,66.01
2019-02-12T02:31:58.868Z,66.63
2019-02-12T02:34:29.196Z,68.95
2019-02-12T02:36:59.408Z,69.71
2019-02-12T02:39:29.719Z,69.97
2019-02-12T02:42:00.497Z,65.66
2019-02-12T02:44:30.964Z,65.83
2019-02-12T02:49:57.569Z,67.70
2019-02-12T02:52:28.733Z,68.66
2019-02-12T02:54:58.959Z,67.70
2019-02-12T02:57:29.255Z,66.23
2019-02-12T02:59:59.599Z,66.50
2019-02-12T03:02:29.868Z,66.62
2019-02-12T03:05:00.191Z,67.81
2019-02-12T03:07:30.521Z,66.87
2019-02-12T03:10:00.843Z,66.38
2019-02-12T03:12:31.100Z,66.44
2019-02-12T03:15:01.343Z,64.46
2019-02-12T03:17:31.626Z,64.89
2019-02-12T03:20:02.900Z,67.23
2019-02-12T03:22:33.186Z,68.88
2019-02-12T03:25:04.170Z,66.59
2019-02-12T03:27:35.127Z,67.10
2019-02-12T03:30:05.936Z,67.03
2019-02-12T03:32:39.666Z,65.91
2019-02-12T03:35:10.731Z,64.83
2019-02-12T03:40:40.113Z,67.41
2019-02-12T03:43:10.653Z,68.80
2019-02-12T03:51:52.290Z,65.29
2019-02-12T03:54:23.129Z,64.52
2019-02-12T03:56:53.755Z,65.83
2019-02-12T03:59:25.156Z,66.11
2019-02-12T04:01:55.549Z,66.15
2019-02-12T04:04:25.770Z,66.25
2019-02-12T04:09:56.183Z,67.05
2019-02-12T04:12:26.822Z,68.35
2019-02-12T04:14:58.310Z,67.17
2019-02-12T04:17:28.662Z,68.09
2019-02-12T04:19:58.900Z,68.04
2019-02-12T04:22:29.132Z,67.05
2019-02-12T04:25:00.155Z,67.10
2019-02-12T04:27:30.587Z,67.82
2019-02-12T04:30:00.836Z,66.29
2019-02-12T04:32:31.260Z,67.81
2019-02-12T04:35:02.619Z,66.66
2019-02-12T04:37:34.434Z,66.70
2019-02-12T04:40:05.272Z,66.32
2019-02-12T04:42:35.712Z,65.76
2019-02-12T04:45:18.308Z,66.30
2019-02-12T04:47:48.661Z,66.77
2019-02-12T04:50:24.133Z,66.62
2019-02-12T04:52:55.158Z,68.70
2019-02-12T04:55:25.676Z,67.71
2019-02-12T04:57:56.391Z,66.42
2019-02-12T05:00:27.466Z,66.08
2019-02-12T05:06:17.401Z,65.94
2019-02-12T05:09:24.207Z,65.31
2019-02-12T05:12:03.133Z,65.31
2019-02-12T05:14:34.209Z,63.13
2019-02-12T05:17:04.585Z,63.02
2019-02-12T05:19:34.818Z,62.88
2019-02-12T05:22:05.071Z,62.25
2019-02-12T05:24:35.385Z,61.16
2019-02-12T05:27:05.709Z,60.12
2019-02-12T05:29:35.928Z,62.62
2019-02-12T05:32:06.184Z,62.48
2019-02-12T05:34:37.103Z,74.94
2019-02-12T05:37:07.444Z,64.97
2019-02-12T05:39:37.941Z,61.69
2019-02-12T05:42:08.581Z,63.93
2019-02-12T05:47:38.761Z,65.92
2019-02-12T05:50:11.843Z,63.76
2019-02-12T05:52:42.354Z,62.97
2019-02-12T05:55:32.921Z,61.46
2019-02-12T05:58:23.972Z,60.33
2019-02-12T06:00:54.460Z,59.81
2019-02-12T06:03:24.910Z,59.49
2019-02-12T06:05:55.954Z,61.20
2019-02-12T06:08:27.186Z,58.70
2019-02-12T06:10:57.893Z,58.65
2019-02-12T06:13:29.618Z,63.67
2019-02-12T06:16:00.204Z,60.54
2019-02-12T06:18:30.842Z,60.27
2019-02-12T06:21:01.789Z,58.39
2019-02-12T06:23:32.656Z,60.78
2019-02-12T06:26:10.754Z,58.04
2019-02-12T06:28:41.348Z,57.50
2019-02-12T06:31:12.427Z,57.84
2019-02-12T06:34:03.143Z,59.04
2019-02-12T06:36:34.313Z,59.55
2019-02-12T06:39:06.291Z,58.51
2019-02-12T06:41:57.177Z,58.54
2019-02-12T06:44:28.883Z,58.57
2019-02-12T06:46:59.373Z,57.63
2019-02-12T06:49:29.903Z,55.17
2019-02-12T06:52:00.987Z,55.87
2019-02-12T06:54:31.489Z,55.23
2019-02-12T06:57:02.375Z,55.69
2019-02-12T06:59:33.369Z,54.42
2019-02-12T07:02:39.079Z,54.08
2019-02-12T07:05:09.736Z,54.86
2019-02-12T07:08:15.878Z,56.82
2019-02-12T07:10:47.020Z,55.63
2019-02-12T07:13:40.604Z,52.06
2019-02-12T07:16:49.746Z,52.63
2019-02-12T07:20:31.623Z,51.42
2019-02-12T07:23:51.611Z,52.12
2019-02-12T07:27:00.847Z,52.42
2019-02-12T07:30:20.839Z,51.28
2019-02-12T07:33:23.032Z,50.42
2019-02-12T07:36:22.864Z,51.07
2019-02-12T07:39:15.565Z,50.26
2019-02-12T07:42:24.197Z,49.85
2019-02-12T07:45:33.531Z,46.06
2019-02-12T07:48:40.598Z,43.16
2019-02-12T07:51:34.012Z,41.19
2019-02-12T07:54:23.271Z,41.09
2019-02-12T07:57:29.993Z,39.80
2019-02-12T08:00:29.127Z,40.13
2019-02-12T08:03:32.029Z,40.85
2019-02-12T08:06:54.688Z,35.65
2019-02-12T08:10:10.449Z,37.61
2019-02-12T08:13:11.372Z,35.42
2019-02-12T08:16:16.303Z,37.31
2019-02-12T08:19:09.705Z,36.23
2019-02-12T08:22:15.543Z,33.03
2019-02-12T08:25:16.191Z,31.54
2019-02-12T08:28:25.321Z,30.52
2019-02-12T08:31:17.138Z,28.49
2019-02-12T08:34:15.459Z,26.36
2019-02-12T08:37:20.233Z,27.81
2019-02-12T08:40:34.732Z,26.29
2019-02-12T08:43:42.600Z,26.42
2019-02-12T08:46:53.303Z,24.12
2019-02-12T08:49:47.368Z,22.96
2019-02-12T08:52:49.953Z,25.88
2019-02-12T08:56:04.806Z,26.50
2019-02-12T08:59:03.906Z,25.12
2019-02-12T09:02:01.776Z,26.44
2019-02-12T09:05:06.917Z,24.12
2019-02-12T09:08:10.518Z,22.55
2019-02-12T09:11:25.490Z,23.29
2019-02-12T09:14:42.606Z,20.90
2019-02-12T09:18:01.674Z,24.75
2019-02-12T09:20:53.086Z,25.17
2019-02-12T09:24:17.997Z,25.63
2019-02-12T09:27:16.383Z,26.12
2019-02-12T09:29:55.245Z,28.67
2019-02-12T09:33:09.454Z,30.23
2019-02-12T09:35:55.537Z,24.18
2019-02-12T09:39:18.608Z,22.85
2019-02-12T09:42:35.830Z,25.43
2019-02-12T09:45:49.774Z,22.66
2019-02-12T09:48:32.874Z,22.08
2019-02-12T09:51:50.638Z,20.00
2019-02-12T09:54:54.858Z,18.81
2019-02-12T09:58:10.849Z,18.80
2019-02-12T10:01:18.145Z,22.91
2019-02-12T10:04:31.776Z,20.31
2019-02-12T10:07:40.138Z,21.73
2019-02-12T10:10:46.267Z,22.56
2019-02-12T10:13:34.048Z,19.94
2019-02-12T10:16:56.864Z,21.07
2019-02-12T10:19:37.999Z,20.18
2019-02-12T10:25:34.688Z,19.38
2019-02-12T10:29:02.263Z,19.73
2019-02-12T10:31:42.904Z,19.50
2019-02-12T10:34:13.984Z,21.52
2019-02-12T10:36:44.288Z,24.77
2019-02-12T10:39:16.086Z,23.63
2019-02-12T10:41:47.769Z,22.56
2019-02-12T10:44:18.338Z,19.35
2019-02-12T10:46:48.887Z,19.74
2019-02-12T10:49:20.052Z,21.47
2019-02-12T10:51:51.122Z,22.05
2019-02-12T10:54:27.827Z,22.56
2019-02-12T10:56:53.829Z,21.15
2019-02-12T10:59:24.380Z,20.39
2019-02-12T11:01:54.911Z,19.09
2019-02-12T11:04:26.410Z,19.48
2019-02-12T11:06:57.732Z,19.25
2019-02-12T11:09:28.454Z,21.40
2019-02-12T11:11:58.941Z,24.18
2019-02-12T11:14:29.363Z,21.43
2019-02-12T11:17:00.326Z,23.19
2019-02-12T11:19:30.737Z,23.97
2019-02-12T11:22:01.099Z,28.35
2019-02-12T11:24:35.583Z,26.39
2019-02-12T11:27:24.264Z,24.52
2019-02-12T11:29:55.310Z,27.59
2019-02-12T11:32:26.049Z,27.85
2019-02-12T11:34:57.303Z,27.07
2019-02-12T11:37:28.331Z,28.29
2019-02-12T11:39:59.128Z,27.76
2019-02-12T11:42:29.498Z,30.69
2019-02-12T11:45:01.194Z,29.84
2019-02-12T11:47:32.111Z,28.97
2019-02-12T11:50:02.386Z,29.41
2019-02-12T11:52:32.632Z,29.39
2019-02-12T11:55:02.964Z,26.25
2019-02-12T11:57:33.299Z,25.53
2019-02-12T12:00:03.608Z,26.73
2019-02-12T12:02:40.687Z,25.29
2019-02-12T12:05:07.044Z,26.49
2019-02-12T12:07:37.373Z,27.04
2019-02-12T12:10:08.247Z,27.33
2019-02-12T12:12:38.493Z,26.26
2019-02-12T12:15:09.822Z,27.82
2019-02-12T12:17:41.345Z,26.36
2019-02-12T12:20:12.170Z,23.28
2019-02-12T12:22:42.446Z,24.28
2019-02-12T12:25:12.692Z,20.19
2019-02-12T12:27:42.995Z,21.17
2019-02-12T12:30:13.730Z,20.61
2019-02-12T12:32:44.364Z,20.17
2019-02-12T12:35:14.611Z,18.97
2019-02-12T12:37:44.911Z,20.22
2019-02-12T12:40:15.447Z,22.20
2019-02-12T12:42:45.701Z,18.78
2019-02-12T12:45:16.033Z,18.79
2019-02-12T12:47:46.314Z,18.20
2019-02-12T12:50:16.653Z,22.49
2019-02-12T12:52:46.932Z,19.29
2019-02-12T12:55:17.208Z,18.64
2019-02-12T12:57:47.664Z,21.01
2019-02-12T13:00:18.247Z,21.48
2019-02-12T13:03:08.696Z,18.87
2019-02-12T13:05:40.080Z,20.80
2019-02-12T13:08:11.002Z,22.07
2019-02-12T13:10:41.250Z,24.39
2019-02-12T13:13:11.715Z,25.33
2019-02-12T13:15:43.031Z,23.98
2019-02-12T13:18:13.307Z,22.96
2019-02-12T13:20:43.537Z,23.27
2019-02-12T13:23:13.869Z,25.63
2019-02-12T13:25:44.215Z,28.01
2019-02-12T13:28:14.506Z,25.40
2019-02-12T13:30:44.749Z,25.12
2019-02-12T13:33:15.124Z,26.38
2019-02-12T13:35:46.283Z,27.33
2019-02-12T13:38:17.164Z,27.10
2019-02-12T13:40:48.648Z,27.88
2019-02-12T13:43:22.105Z,27.63
2019-02-12T13:45:52.519Z,27.38
2019-02-12T13:48:23.690Z,29.04
2019-02-12T13:50:55.052Z,27.75
2019-02-12T13:53:25.986Z,27.63
2019-02-12T13:55:56.455Z,28.40
2019-02-12T13:58:27.328Z,27.21
2019-02-12T14:00:58.795Z,27.95
2019-02-12T14:03:29.646Z,27.95
2019-02-12T14:06:00.645Z,28.51
2019-02-12T14:08:31.877Z,27.88
2019-02-12T14:11:02.929Z,26.70
2019-02-12T14:13:33.697Z,28.42
2019-02-12T14:16:04.621Z,28.16
2019-02-12T14:18:35.924Z,27.76
2019-02-12T14:21:06.548Z,28.08
2019-02-12T14:23:37.521Z,27.99
2019-02-12T14:26:08.564Z,30.13
2019-02-12T14:28:39.633Z,28.09
2019-02-12T14:31:10.241Z,28.91
2019-02-12T14:33:41.379Z,28.89
2019-02-12T14:36:15.947Z,28.43
2019-02-12T14:41:42.279Z,28.08
2019-02-12T14:44:12.956Z,29.04
2019-02-12T14:46:43.984Z,29.75
2019-02-12T14:49:15.374Z,28.68
2019-02-12T14:51:46.277Z,29.23
2019-02-12T14:54:16.800Z,30.58
2019-02-12T14:56:54.583Z,29.53
2019-02-12T14:59:25.018Z,29.59
2019-02-12T15:01:56.192Z,30.24
2019-02-12T15:04:27.588Z,29.34
2019-02-12T15:06:58.147Z,32.31
2019-02-12T15:09:28.699Z,30.23
2019-02-12T15:11:59.659Z,29.49
2019-02-12T15:14:30.697Z,29.97
2019-02-12T15:17:01.509Z,29.08
2019-02-12T15:19:31.932Z,33.38
2019-02-12T15:31:16.316Z,30.31
2019-02-12T15:33:46.964Z,32.50
2019-02-12T15:36:17.662Z,29.73
2019-02-12T15:38:55.274Z,30.17
2019-02-12T15:41:26.113Z,32.80
2019-02-12T15:43:57.242Z,28.88
2019-02-12T15:46:28.395Z,28.85
2019-02-12T15:48:59.139Z,29.97
2019-02-12T15:51:30.135Z,30.97
2019-02-12T15:54:01.467Z,29.34
2019-02-12T15:56:32.734Z,32.74
2019-02-12T15:59:03.402Z,31.60
2019-02-12T16:01:34.279Z,31.87
2019-02-12T16:04:05.426Z,30.19
2019-02-12T16:06:36.197Z,34.36
2019-02-12T16:09:07.656Z,29.30
2019-02-12T16:11:47.702Z,30.58
2019-02-12T16:14:20.548Z,35.67
2019-02-12T16:16:53.612Z,32.23
2019-02-12T16:19:24.014Z,28.14
2019-02-12T16:22:02.228Z,29.25
2019-02-12T16:24:33.172Z,30.15
2019-02-12T16:27:03.945Z,32.69
2019-02-12T16:29:35.197Z,30.82
2019-02-12T16:32:09.088Z,29.81
2019-02-12T16:34:39.491Z,31.34
2019-02-12T16:37:10.559Z,30.61
2019-02-12T16:39:48.169Z,31.90
2019-02-12T16:45:20.696Z,31.91
2019-02-12T16:47:51.448Z,31.15
2019-02-12T16:50:22.423Z,31.36
2019-02-12T16:52:53.994Z,31.34
2019-02-12T16:55:24.469Z,30.79
2019-02-12T16:57:54.912Z,30.62
2019-02-12T17:00:27.611Z,33.19
2019-02-12T17:02:59.940Z,31.78
2019-02-12T17:05:30.464Z,31.54
2019-02-12T17:08:00.900Z,31.43
2019-02-12T17:13:31.484Z,32.43
2019-02-12T17:16:02.658Z,35.27
2019-02-12T17:18:33.005Z,32.43
2019-02-12T17:21:03.784Z,33.11
2019-02-12T17:23:35.038Z,32.43
2019-02-12T17:26:06.322Z,33.58
2019-02-12T17:28:36.873Z,32.20
2019-02-12T17:31:07.857Z,31.50
2019-02-12T17:33:39.110Z,33.09
2019-02-12T17:39:07.511Z,33.96
2019-02-12T17:41:37.999Z,34.83
2019-02-12T17:44:09.684Z,34.32
2019-02-12T17:46:40.706Z,33.53
2019-02-12T17:49:11.288Z,36.03
2019-02-12T17:51:45.252Z,34.10
2019-02-12T17:54:15.754Z,36.40
2019-02-12T17:56:46.304Z,34.08
2019-02-12T17:59:17.653Z,34.96
2019-02-12T18:01:48.912Z,34.71
2019-02-12T18:04:19.484Z,35.62
2019-02-12T18:06:50.129Z,36.02
2019-02-12T18:12:21.429Z,35.48
2019-02-12T18:14:52.649Z,36.60
2019-02-12T18:17:23.075Z,37.04
2019-02-12T18:19:54.738Z,38.34
2019-02-12T18:22:25.769Z,39.66
2019-02-12T18:25:01.876Z,38.73
2019-02-12T18:27:32.363Z,39.29
2019-02-12T18:30:03.334Z,39.19
2019-02-12T18:32:34.288Z,39.73
2019-02-12T18:35:05.195Z,39.45
2019-02-12T18:37:36.534Z,39.06
2019-02-12T18:40:08.140Z,39.65
2019-02-12T18:42:38.707Z,40.74
2019-02-12T18:45:11.578Z,41.03
2019-02-12T18:47:42.740Z,42.26
2019-02-12T18:50:14.170Z,42.65
2019-02-12T18:52:44.891Z,42.26
2019-02-12T18:55:16.204Z,42.61
2019-02-12T18:57:47.324Z,41.92
2019-02-12T19:00:19.506Z,42.11
2019-02-12T19:02:50.092Z,43.38
2019-02-12T19:05:40.993Z,43.40
2019-02-12T19:08:13.496Z,41.57
2019-02-12T19:10:47.081Z,41.07
2019-02-12T19:13:17.942Z,41.99
2019-02-12T19:15:48.809Z,41.63
2019-02-12T19:18:22.231Z,42.82
2019-02-12T19:20:53.294Z,43.36
2019-02-12T19:23:44.354Z,44.86
2019-02-12T19:26:15.447Z,45.40
2019-02-12T19:28:45.962Z,46.49
2019-02-12T19:31:16.937Z,45.65
2019-02-12T19:33:48.183Z,47.06
2019-02-12T19:36:19.378Z,47.73
2019-02-12T19:38:49.824Z,55.07
2019-02-12T19:41:21.077Z,46.22
2019-02-12T19:43:52.356Z,46.79
2019-02-12T19:46:30.059Z,46.92
2019-02-12T19:49:00.444Z,46.92
2019-02-12T19:51:31.286Z,45.56
2019-02-12T19:54:02.166Z,47.48
2019-02-12T19:56:36.935Z,47.98
2019-02-12T19:59:16.915Z,55.70
2019-02-12T20:01:47.893Z,45.46
2019-02-12T20:04:18.369Z,60.95
2019-02-12T20:06:49.628Z,55.88
2019-02-12T20:09:22.918Z,43.64
2019-02-12T20:11:53.797Z,42.43
2019-02-12T20:14:24.678Z,43.42
2019-02-12T20:16:55.644Z,48.58
2019-02-12T20:19:27.047Z,42.51
2019-02-12T20:21:58.100Z,46.47
2019-02-12T20:24:29.889Z,42.16
2019-02-12T20:29:46.076Z,41.71
2019-02-12T20:32:17.607Z,42.33
2019-02-12T20:34:48.019Z,42.71
2019-02-12T20:37:24.555Z,43.21
2019-02-12T20:39:55.230Z,42.86
2019-02-12T20:42:25.849Z,41.83
2019-02-12T20:47:55.937Z,42.35
2019-02-12T20:50:26.689Z,43.91
2019-02-12T20:52:57.374Z,44.05
2019-02-12T20:55:28.743Z,44.60
2019-02-12T21:01:18.293Z,45.50
2019-02-12T21:03:48.957Z,47.12
2019-02-12T21:06:19.476Z,46.32
2019-02-12T21:08:57.593Z,47.30
2019-02-12T21:14:24.315Z,47.75
2019-02-12T21:16:55.077Z,46.31
2019-02-12T21:19:26.043Z,48.02
2019-02-12T21:22:05.608Z,48.40
2019-02-12T21:24:36.426Z,47.91
2019-02-12T21:27:07.275Z,48.08
2019-02-12T21:29:38.269Z,46.04
2019-02-12T21:32:13.009Z,45.32
2019-02-12T21:37:44.041Z,49.06
2019-02-12T21:40:17.463Z,49.45
2019-02-12T21:42:48.332Z,49.14
2019-02-12T21:45:19.106Z,49.68
2019-02-12T21:47:50.180Z,48.21
2019-02-12T21:50:21.193Z,47.00
2019-02-12T21:52:51.525Z,47.20
2019-02-12T21:55:22.048Z,47.41
2019-02-12T21:57:53.545Z,48.88
2019-02-12T22:00:44.503Z,49.31
2019-02-12T22:03:15.341Z,50.14
2019-02-12T22:05:47.308Z,51.68
2019-02-12T22:08:17.860Z,51.96
2019-02-12T22:10:48.341Z,51.75
2019-02-12T22:13:20.050Z,51.09
2019-02-12T22:16:10.845Z,50.48
2019-02-12T22:18:44.523Z,50.99
2019-02-12T22:21:15.074Z,51.18
2019-02-12T22:23:47.375Z,50.44
2019-02-12T22:26:18.715Z,51.34
2019-02-12T22:28:49.211Z,49.72
2019-02-12T22:31:19.720Z,50.89
2019-02-12T22:34:10.544Z,51.20
2019-02-12T22:37:01.671Z,50.40
2019-02-12T22:39:32.157Z,51.02
2019-02-12T22:42:02.830Z,50.16
2019-02-12T22:44:33.641Z,48.92
2019-02-12T22:47:05.017Z,49.13
2019-02-12T22:49:35.519Z,49.25
2019-02-12T22:52:06.044Z,50.13
2019-02-12T22:57:34.401Z,49.55
2019-02-12T23:00:08.421Z,49.96
2019-02-12T23:02:38.872Z,49.73
2019-02-12T23:05:10.159Z,49.98
2019-02-12T23:08:01.056Z,49.60
2019-02-12T23:10:32.329Z,49.27
2019-02-12T23:13:02.885Z,48.21
2019-02-12T23:15:33.563Z,48.74
2019-02-12T23:24:25.728Z,47.78
2019-02-12T23:26:58.059Z,48.95
2019-02-12T23:29:28.971Z,50.19
2019-02-12T23:32:00.133Z,49.23
2019-02-12T23:34:31.030Z,49.79
2019-02-12T23:37:22.031Z,49.56
2019-02-12T23:39:57.406Z,48.77
2019-02-12T23:42:27.875Z,48.27
2019-02-12T23:45:18.776Z,49.11
2019-02-12T23:47:50.266Z,50.68
2019-02-12T23:50:21.440Z,50.92
2019-02-12T23:52:52.003Z,51.25
2019-02-12T23:58:21.313Z,51.51
